Have a Safe July 4th! 

Flight Track Log - Related Links

Times and Time Zones

All times are in EDT time to prevent confusion due to time zone crossing. See the SKW6534 flight status page for this flight to view local times or setup timezone preferences in your user account.

Time Position Orientation Groundspeed Altitude Reporting Facility
EDT Latitude Longitude Course Direction KTS MPH feet Rate Location/Type
Wed 07:16:13 PM 43.4906 -111.9881 133° Southeast 248 285 7,900  Level Salt Lake Center
Wed 07:17:00 PM 43.1680 -111.4274 127° Southeast  Level FlightAware Approximate
Wed 07:17:14 PM 43.4397 -111.9181 135° Southeast 262 302 10,500  Level Salt Lake Center
Wed 07:18:00 PM 43.0577 -111.2034 122° Southeast  Level FlightAware Approximate
Wed 07:18:16 PM 43.3856 -111.8156 126° Southeast 283 326 13,300  Level Salt Lake Center
Wed 07:19:00 PM 42.9359 -110.9915 130° Southeast  Level FlightAware Approximate
Wed 07:19:17 PM 43.3344 -111.7206 126° Southeast 309 356 15,600  Level Salt Lake Center
Wed 07:20:00 PM 42.8171 -110.7764 126° Southeast  Level FlightAware Approximate
Wed 07:20:19 PM 43.2761 -111.6103 126° Southeast 318 366 18,000  Level Salt Lake Center
Wed 07:21:20 PM 43.2219 -111.5117 127° Southeast 331 381 19,900 1,805 Climbing Salt Lake Center
Wed 07:22:22 PM 43.1575 -111.3917 126° Southeast 348 400 21,700 1,610 Climbing Salt Lake Center
Wed 07:23:23 PM 43.1014 -111.2864 126° Southeast 357 411 23,200 1,317 Climbing Salt Lake Center
Wed 07:24:25 PM 43.0431 -111.1797 127° Southeast 364 419 24,400 1,268 Climbing Salt Lake Center
Wed 07:25:26 PM 42.9722 -111.0511 127° Southeast 379 436 25,800 1,268 Climbing Salt Lake Center
Wed 07:26:28 PM 42.9122 -110.9389 126° Southeast 382 440 27,000 1,024 Climbing Salt Lake Center
Wed 07:27:29 PM 42.8381 -110.8067 127° Southeast 392 451 27,900 780 Climbing Salt Lake Center
Wed 07:28:31 PM 42.7731 -110.6889 127° Southeast 405 466 28,600 683 Climbing Salt Lake Center
Wed 07:29:32 PM 42.6989 -110.5561 127° Southeast 411 473 29,300 683 Climbing Salt Lake Center
Wed 07:30:34 PM 42.6308 -110.4381 128° Southeast 414 476 30,000 677 Climbing Salt Lake Center
Wed 07:31:36 PM 42.5522 -110.2983 127° Southeast 418 481 30,700 585 Climbing Salt Lake Center
Wed 07:32:37 PM 42.4842 -110.1761 127° Southeast 422 486 31,200 488 Climbing Salt Lake Center
Wed 07:33:39 PM 42.4153 -110.0539 127° Southeast 427 491 31,700 488 Climbing Salt Lake Center
Wed 07:34:40 PM 42.3336 -109.9103 128° Southeast 431 496 32,200 488 Climbing Salt Lake Center
Wed 07:35:42 PM 42.2631 -109.7864 128° Southeast 434 499 32,700 387 Climbing Salt Lake Center
Wed 07:36:44 PM 42.1806 -109.6431 128° Southeast 433 498 33,000 146 Climbing Salt Lake Center
Wed 07:37:45 PM 42.1081 -109.5164 128° Southeast 442 509 33,000  Level Salt Lake Center
Wed 07:38:47 PM 42.0244 -109.3700 128° Southeast 442 509 33,000  Level Salt Lake Center
Wed 07:39:49 PM 41.9522 -109.2467 128° Southeast 440 506 33,000  Level Salt Lake Center
Wed 07:40:50 PM 41.8811 -109.1258 128° Southeast 433 498 33,000  Level Salt Lake Center
Wed 07:41:52 PM 41.7983 -108.9850 128° Southeast 430 495 33,000  Level Salt Lake Center
Wed 07:42:54 PM 41.7272 -108.8633 128° Southeast 430 495 33,000  Level Salt Lake Center
Wed 07:43:55 PM 41.6444 -108.7214 128° Southeast 430 495 33,000  Level Salt Lake Center
Wed 07:44:57 PM 41.5719 -108.6008 129° Southeast 432 497 33,000  Level Salt Lake Center
Wed 07:45:59 PM 41.5008 -108.4803 128° Southeast 431 496 33,000  Level Salt Lake Center
Wed 07:47:00 PM 41.4164 -108.3397 129° Southeast 433 498 33,000  Level Salt Lake Center
Wed 07:48:15 PM 41.3261 -108.1731 126° Southeast 434 499 33,000  Level Denver Center
Wed 07:49:17 PM 41.2736 -108.0336 117° Southeast 439 505 33,000  Level Denver Center
Wed 07:50:05 PM 41.2325 -107.9181 115° Southeast 440 506 33,000  Level Salt Lake Center
Wed 07:51:07 PM 41.1850 -107.7778 114° Southeast 436 502 33,000  Level Salt Lake Center
Wed 07:52:09 PM 41.1297 -107.6139 114° Southeast 438 504 33,000  Level Salt Lake Center
Wed 07:53:10 PM 41.0817 -107.4747 115° Southeast 435 501 33,000  Level Salt Lake Center
Wed 07:54:24 PM 41.0186 -107.2883 114° Southeast 434 499 33,000  Level Denver Center
Wed 07:55:26 PM 40.9689 -107.1492 115° Southeast 435 501 33,000  Level Denver Center
Wed 07:56:27 PM 40.9131 -106.9869 114° Southeast 435 501 33,000  Level Denver Center
Wed 07:57:28 PM 40.8644 -106.8492 115° Southeast 434 499 33,000 -439 Level Denver Center
Wed 07:58:30 PM 40.8081 -106.6875 115° Southeast 435 501 32,100 -927 Descending Denver Center
Wed 07:59:31 PM 40.7592 -106.5483 115° Southeast 438 504 31,100 -976 Descending Denver Center
Wed 08:00:33 PM 40.7075 -106.4044 115° Southeast 434 499 30,100 -1,024 Descending Denver Center
Wed 08:01:34 PM 40.6533 -106.2503 115° Southeast 417 480 29,000 -1,073 Descending Denver Center
Wed 08:02:36 PM 40.6103 -106.1306 115° Southeast 401 461 27,900 -1,073 Descending Denver Center
Wed 08:03:37 PM 40.5661 -106.0064 115° Southeast 374 430 26,800 -1,073 Descending Denver Center
Wed 08:04:39 PM 40.5222 -105.8867 116° Southeast 364 419 25,700 -1,122 Descending Denver Center
Wed 08:05:40 PM 40.4792 -105.7731 116° Southeast 347 399 24,500 -1,279 Descending Denver Center
Wed 08:06:41 PM 40.4297 -105.6381 116° Southeast 348 400 23,100 -1,171 Descending Denver Center
Wed 08:07:43 PM 40.3892 -105.5239 115° Southeast 343 395 22,100 -1,024 Descending Denver Center
Wed 08:08:44 PM 40.3469 -105.4175 117° Southeast 348 400 21,000 -1,317 Descending Denver Center
Wed 08:09:46 PM 40.2886 -105.3297 131° Southeast 318 366 19,400 -1,707 Descending Denver Center
Wed 08:10:47 PM 40.2261 -105.2319 130° Southeast 322 371 17,500 -1,805 Descending Denver Center
Wed 08:11:49 PM 40.1667 -105.1408 130° Southeast 328 377 15,700 -1,171 Descending Denver Center
Wed 08:12:50 PM 40.1078 -105.0483 130° Southeast 329 379 15,100 -585 Descending Denver Center
Wed 08:13:52 PM 40.0517 -104.9461 126° Southeast 322 371 14,500 -683 Descending Denver Center
Wed 08:14:53 PM 40.0050 -104.8494 122° Southeast 317 365 13,700 -787 Descending Denver Center
Wed 08:15:54 PM 39.9739 -104.7628 115° Southeast 263 303 12,900 -829 Descending Denver Center
Wed 08:16:56 PM 39.9522 -104.6739 108° East 255 293 12,000 -878 Descending Denver Center
Wed 08:17:57 PM 39.9158 -104.5931 120° Southeast 254 292 11,100 -789 Descending Denver Center
Wed 08:18:12 PM 39.9000 -104.5667 128° Southeast 253 291 11,000 -97 Descending Denver TRACON
Wed 08:18:59 PM 39.8636 -104.5294 142° Southeast 254 292 11,000  Level Denver Center
Wed 08:20:00 PM 39.7917 -104.5286 179° South 255 293 11,000 -341 Level Denver Center
Wed 08:21:02 PM 39.7189 -104.5272 179° South 258 297 10,300 -829 Descending Denver Center
Wed 08:22:03 PM 39.6464 -104.5244 178° South 261 300 9,300 -639 Descending Denver Center
Wed 08:23:04 PM 39.5753 -104.5242 180° South 261 300 9,000 -537 Descending Denver Center
Wed 08:24:06 PM 39.5347 -104.5817 228° Southwest 218 251 8,200 -488 Descending Denver Center
Wed 08:25:07 PM 39.5514 -104.6361 292° West 180 207 8,000 -98 Descending Denver Center
Wed 08:26:09 PM 39.5967 -104.6450 351° North 170 196 8,000  Level Denver Center
Wed 08:27:10 PM 39.6456 -104.6444 North 165 190 8,000  Level Denver Center
Wed 08:28:11 PM 39.6922 -104.6436 North 166 191 8,000 -293 Level Denver Center
Wed 08:29:13 PM 39.7358 -104.6433 360° North 156 180 7,400 -683 Descending Denver Center
Wed 08:30:14 PM 39.7769 -104.6428 North 148 170 6,600 -780 Descending Denver Center
Wed 08:31:16 PM 39.8144 -104.6419 North 127 146 5,800 -634 Descending Denver Center
Wed 08:32:17 PM 39.8450 -104.6422 360° North 118 136 5,300 -492 Descending Denver Center

Login

Don't have an account? Register now (free) for customized features, flight alerts, and more!